Time;durP1;ratioP1;P1;durP2;ratioP2;P2;SDS_P1;SDS_P2;PMS_P1;PMS_P2;Temp;Humidity;BMP_temperature;BMP_pressure;BME280_temperature;BME280_humidity;BME280_pressure;Samples;Min_cycle;Max_cycle;Signal;HPM_P1;HPM_P2
2023/04/08 00:01:52;;;;;;;11.25;9.65;;;3.40;99.90;;;;;;5022632;28;20038;-41
2023/04/08 00:04:26;;;;;;;12.52;8.23;;;3.40;99.90;;;;;;5021438;28;20060;-41
2023/04/08 00:06:55;;;;;;;10.25;9.23;;;3.50;99.90;;;;;;5021563;28;20052;-41
2023/04/08 00:09:22;;;;;;;11.18;8.02;;;3.60;99.90;;;;;;5022725;28;20605;-42
2023/04/08 00:11:50;;;;;;;14.52;10.32;;;3.60;99.90;;;;;;5020404;28;20049;-41
2023/04/08 00:14:18;;;;;;;10.10;8.85;;;3.50;99.90;;;;;;5021640;28;20049;-40
2023/04/08 00:16:45;;;;;;;12.23;8.95;;;3.40;99.90;;;;;;5022584;28;20061;-41
2023/04/08 00:19:13;;;;;;;9.43;8.02;;;3.30;99.90;;;;;;5020934;28;20045;-41
2023/04/08 00:21:40;;;;;;;10.15;8.85;;;3.30;99.90;;;;;;5021990;28;20053;-42
2023/04/08 00:24:08;;;;;;;8.75;7.35;;;3.30;99.90;;;;;;5022283;28;20056;-44
2023/04/08 00:26:36;;;;;;;11.52;8.40;;;3.20;99.90;;;;;;5022483;28;20501;-41
2023/04/08 00:29:04;;;;;;;9.38;8.50;;;3.20;99.90;;;;;;5021893;28;20053;-44
2023/04/08 00:31:32;;;;;;;11.38;8.75;;;3.20;99.90;;;;;;5021813;28;20529;-43
2023/04/08 00:33:59;;;;;;;12.48;8.20;;;3.20;99.90;;;;;;5020351;28;20050;-40
2023/04/08 00:36:27;;;;;;;13.23;9.00;;;3.20;99.90;;;;;;5022265;28;20053;-41
2023/04/08 00:38:55;;;;;;;12.63;8.73;;;3.20;99.90;;;;;;5022760;28;20055;-41
2023/04/08 00:41:23;;;;;;;12.85;7.78;;;3.30;99.90;;;;;;5022541;28;20061;-41
2023/04/08 00:43:51;;;;;;;13.25;9.20;;;3.20;99.90;;;;;;5021680;28;20041;-41
2023/04/08 00:46:19;;;;;;;12.35;11.13;;;3.20;99.90;;;;;;5021920;28;20434;-41
2023/04/08 00:48:47;;;;;;;15.65;9.98;;;3.20;99.90;;;;;;5003919;28;20073;-42
2023/04/08 00:51:15;;;;;;;9.80;7.85;;;3.30;99.90;;;;;;5020995;28;20049;-41
2023/04/08 00:53:43;;;;;;;12.00;9.10;;;3.30;99.90;;;;;;5022722;28;20477;-43
2023/04/08 00:56:11;;;;;;;9.98;8.88;;;3.30;99.90;;;;;;5024824;28;20049;-41
2023/04/08 00:58:39;;;;;;;11.93;9.40;;;3.30;99.90;;;;;;5025604;28;20573;-41
2023/04/08 01:01:13;;;;;;;11.98;9.52;;;3.40;99.90;;;;;;5025661;28;20429;-40
2023/04/08 01:03:55;;;;;;;10.63;8.43;;;3.40;99.90;;;;;;5024924;28;20072;-40
2023/04/08 01:06:25;;;;;;;15.55;10.52;;;3.50;99.90;;;;;;5025072;28;20056;-39
2023/04/08 01:08:53;;;;;;;14.30;8.82;;;3.60;99.90;;;;;;5024658;28;20053;-40
2023/04/08 01:11:21;;;;;;;12.60;10.18;;;3.60;99.90;;;;;;5009133;28;20049;-40
2023/04/08 01:13:54;;;;;;;11.13;9.05;;;3.70;99.90;;;;;;5025734;28;20061;-41
2023/04/08 01:16:24;;;;;;;13.48;9.13;;;3.70;99.90;;;;;;5025032;28;20058;-40
2023/04/08 01:18:53;;;;;;;11.55;9.57;;;3.80;99.90;;;;;;5025025;28;20057;-40
2023/04/08 01:21:23;;;;;;;13.82;10.25;;;3.70;99.90;;;;;;5011242;28;20064;-42
2023/04/08 01:24:22;;;;;;;15.20;11.68;;;3.80;99.90;;;;;;5024304;28;20445;-40
2023/04/08 01:26:52;;;;;;;13.77;8.95;;;3.80;99.90;;;;;;5021210;28;20666;-43
2023/04/08 01:29:20;;;;;;;13.40;9.90;;;3.80;99.90;;;;;;5026130;28;20058;-42
2023/04/08 01:31:48;;;;;;;14.25;9.73;;;4.00;99.90;;;;;;5024951;28;20045;-47
2023/04/08 01:34:18;;;;;;;14.10;8.98;;;4.00;99.90;;;;;;5024043;28;20068;-40
2023/04/08 01:36:47;;;;;;;11.93;10.82;;;4.00;99.90;;;;;;5025491;28;20049;-42
2023/04/08 01:39:16;;;;;;;10.50;8.85;;;4.10;99.90;;;;;;5024484;28;20056;-41
2023/04/08 01:41:47;;;;;;;12.65;9.25;;;4.10;99.90;;;;;;5024715;28;20080;-44
2023/04/08 01:44:16;;;;;;;9.70;8.05;;;4.20;99.90;;;;;;5023627;28;20072;-42
2023/04/08 01:46:44;;;;;;;11.13;8.38;;;4.20;99.90;;;;;;5024551;28;20046;-40
2023/04/08 01:49:14;;;;;;;16.08;10.45;;;4.30;99.90;;;;;;5024793;28;20141;-41
2023/04/08 01:51:43;;;;;;;11.07;8.50;;;4.30;99.90;;;;;;5023641;28;20045;-40
2023/04/08 01:54:11;;;;;;;10.68;8.32;;;4.30;99.90;;;;;;5025287;28;20046;-38
2023/04/08 01:56:41;;;;;;;9.73;8.15;;;4.30;99.90;;;;;;5025332;28;20469;-40
2023/04/08 01:59:13;;;;;;;10.80;9.60;;;4.30;99.90;;;;;;5010179;28;20584;-41
2023/04/08 02:01:41;;;;;;;;;;;4.30;99.90;;;;;;5012744;28;20058;-43
2023/04/08 02:04:09;;;;;;;8.60;7.05;;;4.30;99.90;;;;;;5022825;28;19929;-42
2023/04/08 02:06:37;;;;;;;9.00;7.90;;;4.30;99.90;;;;;;5023897;28;20041;-44
2023/04/08 02:09:05;;;;;;;10.30;9.20;;;4.30;99.90;;;;;;5025202;28;20052;-43
2023/04/08 02:11:32;;;;;;;9.15;8.23;;;4.40;99.90;;;;;;5024252;28;20050;-42
2023/04/08 02:14:00;;;;;;;11.35;7.38;;;4.30;99.90;;;;;;5002152;28;20062;-41
2023/04/08 02:16:35;;;;;;;12.75;9.57;;;4.30;99.90;;;;;;5022250;28;20461;-46
2023/04/08 02:19:17;;;;;;;8.00;7.30;;;4.30;99.90;;;;;;5022615;28;20053;-42
2023/04/08 02:21:56;;;;;;;10.07;7.03;;;4.30;99.90;;;;;;5024414;28;20399;-46
2023/04/08 02:24:26;;;;;;;10.07;7.80;;;4.30;99.90;;;;;;5025051;28;20422;-42
2023/04/08 02:26:56;;;;;;;9.82;8.30;;;4.30;99.90;;;;;;5023827;28;20065;-44
2023/04/08 02:29:25;;;;;;;9.20;7.93;;;4.30;99.90;;;;;;5022320;28;20049;-43
2023/04/08 02:31:55;;;;;;;10.43;7.75;;;4.30;99.90;;;;;;5022716;28;20045;-42
2023/04/08 02:34:24;;;;;;;9.43;8.40;;;4.20;99.90;;;;;;5023641;28;20113;-35
2023/04/08 02:36:52;;;;;;;11.45;7.82;;;4.20;99.90;;;;;;5025098;28;20529;-35
2023/04/08 02:39:19;;;;;;;19.75;10.18;;;4.20;99.90;;;;;;5026017;28;20064;-35
2023/04/08 02:41:49;;;;;;;11.82;8.48;;;4.20;99.90;;;;;;4994971;28;20054;-36
2023/04/08 02:44:16;;;;;;;10.63;8.50;;;4.20;99.90;;;;;;5023023;28;20524;-35
2023/04/08 02:46:44;;;;;;;10.38;8.07;;;4.20;99.90;;;;;;5024985;28;20050;-35
2023/04/08 02:49:11;;;;;;;10.93;8.93;;;4.20;99.90;;;;;;5022967;28;20045;-35
2023/04/08 02:51:39;;;;;;;10.55;8.07;;;4.20;99.90;;;;;;5023869;28;20060;-35
2023/04/08 02:54:06;;;;;;;11.50;7.85;;;4.20;99.90;;;;;;5023916;28;20057;-35
2023/04/08 02:56:34;;;;;;;8.77;7.50;;;4.20;99.90;;;;;;5024196;28;20061;-35
2023/04/08 02:59:02;;;;;;;13.88;9.75;;;4.20;99.90;;;;;;5022996;28;20049;-35
2023/04/08 03:01:30;;;;;;;10.48;8.43;;;4.30;99.90;;;;;;5023668;28;20065;-35
2023/04/08 03:03:57;;;;;;;12.75;8.75;;;4.20;99.90;;;;;;5022221;28;20050;-35
2023/04/08 03:06:25;;;;;;;9.93;8.68;;;4.10;99.90;;;;;;5023146;28;20422;-35
2023/04/08 03:08:53;;;;;;;14.48;9.60;;;4.10;99.90;;;;;;5023732;28;20045;-35
2023/04/08 03:11:20;;;;;;;10.73;8.57;;;4.10;99.90;;;;;;5022806;28;20049;-35
2023/04/08 03:13:48;;;;;;;13.15;9.18;;;4.10;99.90;;;;;;5023004;28;20053;-35
2023/04/08 03:16:16;;;;;;;14.65;10.63;;;4.10;99.90;;;;;;5023294;28;20045;-35
2023/04/08 03:18:43;;;;;;;14.18;9.65;;;4.00;99.90;;;;;;5022143;28;20057;-35
2023/04/08 03:21:11;;;;;;;13.75;8.63;;;4.00;99.90;;;;;;5023215;28;20561;-35
2023/04/08 03:23:38;;;;;;;9.88;8.40;;;3.90;99.90;;;;;;5020490;28;20293;-36
2023/04/08 03:26:06;;;;;;;13.75;7.43;;;3.90;99.90;;;;;;5023532;28;20402;-35
2023/04/08 03:28:33;;;;;;;11.82;8.40;;;3.90;99.90;;;;;;5024143;28;20604;-36
2023/04/08 03:31:05;;;;;;;9.45;8.45;;;3.90;99.90;;;;;;5023169;28;20042;-35
2023/04/08 03:33:32;;;;;;;14.82;9.95;;;3.90;99.90;;;;;;5019986;28;20044;-36
2023/04/08 03:36:00;;;;;;;12.85;8.95;;;3.80;99.90;;;;;;5022337;28;20046;-36
2023/04/08 03:38:28;;;;;;;12.73;11.38;;;3.80;99.90;;;;;;5023182;28;20458;-35
2023/04/08 03:40:55;;;;;;;13.38;8.65;;;3.70;99.90;;;;;;5023818;28;20414;-35
2023/04/08 03:43:24;;;;;;;11.88;8.70;;;3.70;99.90;;;;;;5006588;28;20049;-35
2023/04/08 03:45:51;;;;;;;10.95;9.20;;;3.70;99.90;;;;;;4998221;28;20489;-36
2023/04/08 03:48:19;;;;;;;12.75;9.35;;;3.70;99.90;;;;;;5023662;28;20060;-35
2023/04/08 03:50:46;;;;;;;18.38;10.25;;;3.70;99.90;;;;;;5021667;28;20057;-36
2023/04/08 03:53:14;;;;;;;14.70;10.75;;;3.60;99.90;;;;;;5021830;28;20068;-43
2023/04/08 03:55:42;;;;;;;13.45;10.27;;;3.60;99.90;;;;;;5022296;28;20046;-36
2023/04/08 03:58:09;;;;;;;13.15;11.85;;;3.60;99.90;;;;;;5022733;28;20057;-36
2023/04/08 04:00:37;;;;;;;10.40;9.07;;;3.60;99.90;;;;;;5022879;28;20079;-36
2023/04/08 04:03:05;;;;;;;13.57;8.88;;;3.60;99.90;;;;;;5023227;28;20056;-36
2023/04/08 04:05:33;;;;;;;10.90;9.63;;;3.50;99.90;;;;;;5019573;28;20056;-36
2023/04/08 04:08:00;;;;;;;16.27;11.50;;;3.60;99.90;;;;;;5023416;28;20061;-36
2023/04/08 04:10:28;;;;;;;15.95;11.07;;;3.60;99.90;;;;;;5022345;28;20497;-36
2023/04/08 04:12:55;;;;;;;15.57;10.45;;;3.60;99.90;;;;;;5023044;28;20076;-36
2023/04/08 04:15:23;;;;;;;12.25;10.77;;;3.70;99.90;;;;;;5018820;28;20041;-36
2023/04/08 04:17:51;;;;;;;14.32;8.60;;;3.70;99.90;;;;;;5022099;28;20061;-36
2023/04/08 04:20:18;;;;;;;15.52;12.65;;;3.70;99.90;;;;;;5021767;28;20049;-36
2023/04/08 04:22:46;;;;;;;13.38;10.73;;;3.70;99.90;;;;;;5022643;28;20057;-37
2023/04/08 04:25:14;;;;;;;14.65;11.27;;;3.70;99.90;;;;;;5019255;28;20049;-35
2023/04/08 04:27:41;;;;;;;14.38;10.52;;;3.70;99.90;;;;;;5022583;28;20422;-36
2023/04/08 04:30:14;;;;;;;11.50;9.98;;;3.80;99.90;;;;;;5025476;28;20060;-36
2023/04/08 04:32:42;;;;;;;15.60;11.27;;;3.80;99.90;;;;;;5024298;28;20056;-36
2023/04/08 04:35:11;;;;;;;12.25;10.20;;;3.80;99.90;;;;;;5024954;28;20049;-36
2023/04/08 04:37:39;;;;;;;13.32;10.20;;;3.90;99.90;;;;;;5026565;28;20057;-36
2023/04/08 04:40:07;;;;;;;13.10;9.65;;;3.90;99.90;;;;;;5026075;28;20072;-36
2023/04/08 04:42:35;;;;;;;13.88;10.93;;;3.90;99.90;;;;;;5026001;28;20435;-35
2023/04/08 04:45:03;;;;;;;11.38;10.02;;;3.90;99.90;;;;;;5026532;28;20088;-36
2023/04/08 04:47:31;;;;;;;11.75;9.55;;;3.90;99.90;;;;;;5025593;28;20049;-35
2023/04/08 04:49:59;;;;;;;11.95;8.68;;;4.00;99.90;;;;;;5025087;28;20057;-36
2023/04/08 04:52:26;;;;;;;15.32;10.60;;;4.00;99.90;;;;;;5027141;28;20525;-36
2023/04/08 04:54:56;;;;;;;12.68;9.50;;;4.00;99.90;;;;;;5025207;28;20056;-35
2023/04/08 04:57:23;;;;;;;14.45;11.80;;;4.00;99.90;;;;;;5026757;28;20373;-35
2023/04/08 04:59:51;;;;;;;14.05;10.27;;;4.00;99.90;;;;;;5026340;28;20474;-35
2023/04/08 05:02:18;;;;;;;14.45;11.85;;;4.00;99.90;;;;;;5025275;28;20057;-35
2023/04/08 05:04:46;;;;;;;18.98;11.82;;;4.10;99.90;;;;;;5025259;28;20046;-35
2023/04/08 05:07:13;;;;;;;20.30;10.70;;;4.10;99.90;;;;;;5025381;28;20049;-35
2023/04/08 05:09:41;;;;;;;17.83;12.88;;;4.10;99.90;;;;;;5026833;28;20056;-35
2023/04/08 05:12:08;;;;;;;15.82;11.75;;;4.10;99.90;;;;;;5025635;28;20053;-35
2023/04/08 05:14:36;;;;;;;16.38;11.50;;;4.10;99.90;;;;;;5023113;28;20050;-35
2023/04/08 05:17:04;;;;;;;13.68;11.10;;;4.20;99.90;;;;;;5025048;28;20053;-35
2023/04/08 05:19:32;;;;;;;17.70;13.07;;;4.20;99.90;;;;;;5024969;28;20045;-36
2023/04/08 05:22:00;;;;;;;25.15;11.55;;;4.20;99.90;;;;;;5024882;28;20446;-36
2023/04/08 05:24:30;;;;;;;13.35;10.38;;;4.30;99.90;;;;;;5024820;28;20414;-36
2023/04/08 05:26:57;;;;;;;15.68;10.27;;;4.30;99.90;;;;;;5024905;28;20319;-36
2023/04/08 05:29:25;;;;;;;16.83;12.23;;;4.20;99.90;;;;;;5007783;28;20053;-36
2023/04/08 05:31:52;;;;;;;14.90;11.90;;;4.30;99.90;;;;;;5024249;28;20082;-36
2023/04/08 05:34:21;;;;;;;15.18;12.07;;;4.30;99.90;;;;;;5023545;28;20072;-36
2023/04/08 05:36:50;;;;;;;15.85;11.52;;;4.30;99.90;;;;;;5025121;28;20385;-36
2023/04/08 05:39:18;;;;;;;16.63;13.10;;;4.30;99.90;;;;;;5023303;28;20115;-36
2023/04/08 05:41:46;;;;;;;13.38;11.88;;;4.40;99.90;;;;;;5024116;28;20091;-35
2023/04/08 05:44:14;;;;;;;16.27;12.10;;;4.40;99.90;;;;;;5017930;28;20049;-36
2023/04/08 05:46:42;;;;;;;15.38;11.50;;;4.40;99.90;;;;;;5024915;28;20060;-35
2023/04/08 05:49:09;;;;;;;15.27;12.85;;;4.50;99.90;;;;;;5023654;28;20061;-36
2023/04/08 05:51:38;;;;;;;15.20;11.13;;;4.50;99.90;;;;;;5024330;28;20069;-35
2023/04/08 05:54:05;;;;;;;16.67;13.43;;;4.50;99.90;;;;;;5024869;28;20042;-36
2023/04/08 05:56:33;;;;;;;15.65;12.45;;;4.50;99.90;;;;;;5025610;28;20080;-35
2023/04/08 05:59:01;;;;;;;15.98;10.25;;;4.50;99.90;;;;;;5023534;28;20089;-35
2023/04/08 06:01:29;;;;;;;16.45;12.32;;;4.50;99.90;;;;;;5024685;28;20061;-38
2023/04/08 06:03:57;;;;;;;18.70;13.30;;;4.60;99.90;;;;;;5023809;28;20053;-36
2023/04/08 06:06:25;;;;;;;20.27;13.85;;;4.60;99.90;;;;;;5024427;28;20053;-36
2023/04/08 06:08:52;;;;;;;17.17;12.45;;;4.60;99.90;;;;;;5024101;28;20053;-36
2023/04/08 06:11:20;;;;;;;16.30;13.73;;;4.60;99.90;;;;;;5024387;28;20072;-36
2023/04/08 06:13:47;;;;;;;16.38;11.98;;;4.60;99.90;;;;;;5024381;28;20061;-35
2023/04/08 06:16:16;;;;;;;21.30;11.98;;;4.70;99.90;;;;;;5024845;28;20064;-36
2023/04/08 06:18:47;;;;;;;19.08;11.57;;;4.70;99.90;;;;;;5022892;28;20048;-35
2023/04/08 06:21:15;;;;;;;18.33;11.07;;;4.70;99.90;;;;;;5022299;28;20045;-36
2023/04/08 06:23:43;;;;;;;16.25;10.52;;;4.70;99.90;;;;;;5023800;28;20497;-35
2023/04/08 06:26:12;;;;;;;13.05;10.40;;;4.70;99.90;;;;;;5023745;28;20053;-36
2023/04/08 06:28:39;;;;;;;14.90;10.15;;;4.70;99.90;;;;;;5024852;28;20049;-36
2023/04/08 06:31:07;;;;;;;15.95;11.80;;;4.80;99.90;;;;;;5024194;28;20429;-35
2023/04/08 06:33:34;;;;;;;17.75;9.63;;;4.80;99.90;;;;;;5018111;28;20056;-36
2023/04/08 06:36:06;;;;;;;14.77;12.18;;;4.90;99.90;;;;;;5023522;28;20056;-37
2023/04/08 06:38:35;;;;;;;14.65;10.95;;;4.90;99.90;;;;;;5023953;28;20042;-36
2023/04/08 06:41:06;;;;;;;21.25;14.95;;;4.90;99.90;;;;;;5024204;28;20049;-35
2023/04/08 06:43:35;;;;;;;;;;;5.00;99.90;;;;;;5025000;28;20056;-36
2023/04/08 06:46:02;;;;;;;16.45;12.80;;;5.00;99.90;;;;;;5023892;28;19929;-36
2023/04/08 06:48:30;;;;;;;23.73;11.43;;;5.00;99.90;;;;;;5024145;28;20061;-36
2023/04/08 06:50:59;;;;;;;17.35;10.95;;;5.10;99.90;;;;;;5022511;28;20045;-36
2023/04/08 06:53:31;;;;;;;17.58;13.38;;;5.10;99.90;;;;;;5024675;28;20041;-35
2023/04/08 06:55:59;;;;;;;16.42;13.23;;;5.20;99.90;;;;;;5022763;28;20049;-36
2023/04/08 06:58:27;;;;;;;17.08;12.98;;;5.20;99.90;;;;;;5024195;28;20049;-36
2023/04/08 07:00:55;;;;;;;19.10;14.48;;;5.20;99.90;;;;;;5024052;28;20065;-36
2023/04/08 07:03:23;;;;;;;18.63;13.43;;;5.10;99.90;;;;;;5023902;28;20068;-36
2023/04/08 07:05:51;;;;;;;15.32;13.48;;;5.20;99.90;;;;;;5021633;28;20403;-36
2023/04/08 07:08:18;;;;;;;22.08;12.30;;;5.10;99.90;;;;;;5024290;28;20476;-36
2023/04/08 07:10:46;;;;;;;18.85;13.45;;;5.20;99.90;;;;;;5023870;28;20049;-36
2023/04/08 07:13:14;;;;;;;20.90;14.52;;;5.20;99.90;;;;;;5024893;28;20042;-35
2023/04/08 07:15:41;;;;;;;25.63;16.08;;;5.20;99.90;;;;;;5016214;28;20056;-35
2023/04/08 07:18:09;;;;;;;22.65;14.48;;;5.20;99.90;;;;;;5022427;28;20049;-36
2023/04/08 07:20:37;;;;;;;17.92;13.15;;;5.20;99.90;;;;;;5022609;28;20064;-36
2023/04/08 07:23:05;;;;;;;19.80;12.93;;;5.30;99.90;;;;;;5023022;28;20064;-36
2023/04/08 07:25:34;;;;;;;22.52;15.10;;;5.30;99.90;;;;;;5023973;28;20327;-35
2023/04/08 07:28:01;;;;;;;18.58;14.20;;;5.30;99.90;;;;;;5022413;28;20045;-36
2023/04/08 07:30:29;;;;;;;19.02;14.32;;;5.30;99.90;;;;;;5023156;28;20046;-36
2023/04/08 07:32:57;;;;;;;13.95;12.30;;;5.40;99.90;;;;;;5023497;28;20045;-36
2023/04/08 07:35:28;;;;;;;23.90;14.67;;;5.40;99.90;;;;;;5016893;28;20433;-35
2023/04/08 07:37:56;;;;;;;17.52;13.70;;;5.40;99.90;;;;;;5018549;28;20126;-35
2023/04/08 07:40:24;;;;;;;11.23;8.20;;;5.40;99.90;;;;;;5023092;28;20457;-36
2023/04/08 07:42:51;;;;;;;14.57;11.30;;;5.40;99.90;;;;;;5023087;28;20068;-36
2023/04/08 07:45:19;;;;;;;14.23;10.98;;;5.20;99.90;;;;;;5023083;28;20049;-36
2023/04/08 07:47:47;;;;;;;17.80;12.27;;;5.20;99.90;;;;;;5018885;28;20061;-36
2023/04/08 07:50:15;;;;;;;22.70;14.93;;;5.20;99.90;;;;;;5020566;28;20053;-35
2023/04/08 07:52:42;;;;;;;17.50;12.68;;;5.10;99.90;;;;;;5023360;28;20057;-36
2023/04/08 07:55:10;;;;;;;14.93;11.77;;;4.80;99.90;;;;;;5021124;28;20438;-35
2023/04/08 07:57:37;;;;;;;18.75;13.23;;;4.70;99.90;;;;;;5021676;28;20057;-36
2023/04/08 08:00:06;;;;;;;19.63;13.60;;;4.60;99.90;;;;;;5022999;28;20056;-35
2023/04/08 08:02:39;;;;;;;17.90;13.20;;;4.30;99.90;;;;;;5021750;28;20045;-35
2023/04/08 08:05:07;;;;;;;16.70;11.77;;;4.30;99.90;;;;;;5020835;28;20079;-35
2023/04/08 08:07:35;;;;;;;15.13;10.10;;;4.30;99.90;;;;;;5022801;28;20045;-35
2023/04/08 08:10:02;;;;;;;14.55;11.52;;;4.30;99.90;;;;;;5021555;28;20510;-36
2023/04/08 08:12:30;;;;;;;18.88;10.05;;;4.20;99.90;;;;;;5023322;28;20057;-36
2023/04/08 08:14:58;;;;;;;17.92;12.25;;;4.20;99.90;;;;;;5021007;28;20048;-36
2023/04/08 08:17:28;;;;;;;17.05;12.43;;;4.20;99.90;;;;;;5022226;28;20425;-36
2023/04/08 08:19:56;;;;;;;17.92;12.52;;;4.10;99.90;;;;;;5020479;28;20046;-35
2023/04/08 08:22:24;;;;;;;18.45;12.55;;;4.10;99.90;;;;;;5022377;28;20050;-36
2023/04/08 08:24:56;;;;;;;21.13;13.25;;;4.10;99.90;;;;;;5023164;28;20402;-35
2023/04/08 08:27:24;;;;;;;26.60;12.57;;;4.10;99.90;;;;;;5022492;28;20057;-36
2023/04/08 08:29:52;;;;;;;18.55;13.07;;;4.20;99.90;;;;;;5022018;28;20057;-35
2023/04/08 08:32:19;;;;;;;15.88;12.18;;;4.20;99.90;;;;;;5022891;28;20057;-36
2023/04/08 08:34:48;;;;;;;19.40;13.85;;;4.20;99.90;;;;;;5011440;28;20084;-36
2023/04/08 08:37:16;;;;;;;16.05;11.63;;;4.30;99.90;;;;;;5021239;28;20601;-36
2023/04/08 08:39:43;;;;;;;17.85;11.80;;;4.30;99.90;;;;;;5022656;28;20056;-36
2023/04/08 08:42:23;;;;;;;20.98;14.25;;;4.20;99.90;;;;;;5021756;28;20054;-35
2023/04/08 08:44:51;;;;;;;19.05;13.82;;;4.20;99.90;;;;;;5020962;28;20391;-35
2023/04/08 08:47:19;;;;;;;16.95;11.63;;;4.20;99.90;;;;;;5015549;28;20053;-36
2023/04/08 08:49:47;;;;;;;19.55;13.60;;;4.20;99.90;;;;;;5021333;28;20069;-37
2023/04/08 08:52:17;;;;;;;22.27;15.18;;;4.20;99.90;;;;;;5020725;28;20053;-35
2023/04/08 08:54:45;;;;;;;16.58;11.20;;;4.20;99.90;;;;;;5022573;28;20065;-36
2023/04/08 08:57:19;;;;;;;17.80;12.73;;;4.10;99.90;;;;;;5023741;28;20508;-35
2023/04/08 08:59:46;;;;;;;16.83;13.38;;;4.10;99.90;;;;;;5022972;28;20049;-36
2023/04/08 09:02:32;;;;;;;17.73;13.48;;;3.90;99.90;;;;;;5021781;28;20064;-35
2023/04/08 09:05:04;;;;;;;19.73;12.30;;;3.90;99.90;;;;;;5014448;28;20053;-35
2023/04/08 09:07:35;;;;;;;18.60;15.75;;;4.00;99.90;;;;;;5022518;28;20136;-36
2023/04/08 09:10:03;;;;;;;22.20;14.73;;;3.90;99.90;;;;;;5025447;28;20046;-36
2023/04/08 09:12:31;;;;;;;18.83;12.20;;;4.00;99.90;;;;;;5022055;28;20050;-36
2023/04/08 09:15:09;;;;;;;26.88;16.88;;;4.10;99.90;;;;;;5023450;28;20048;-35
2023/04/08 09:17:38;;;;;;;21.25;16.65;;;4.10;99.90;;;;;;5025906;28;20087;-35
2023/04/08 09:20:10;;;;;;;24.48;14.02;;;4.10;99.90;;;;;;5025625;28;20282;-36
2023/04/08 09:22:59;;;;;;;18.17;14.38;;;4.10;99.90;;;;;;5025357;28;20045;-36
2023/04/08 09:25:29;;;;;;;20.30;16.92;;;4.20;99.90;;;;;;5025484;28;20446;-36
2023/04/08 09:27:57;;;;;;;17.77;14.52;;;4.20;99.90;;;;;;5023185;28;20332;-35
2023/04/08 09:30:26;;;;;;;21.60;14.90;;;4.20;99.90;;;;;;5025315;28;20470;-36
2023/04/08 09:32:56;;;;;;;19.45;16.40;;;4.30;99.90;;;;;;5026136;28;20053;-36
2023/04/08 09:35:25;;;;;;;17.85;15.05;;;4.30;99.90;;;;;;5023847;28;20064;-36
2023/04/08 09:37:53;;;;;;;19.08;16.13;;;4.30;99.90;;;;;;5022135;28;20053;-36
2023/04/08 09:40:22;;;;;;;18.02;12.23;;;4.40;99.90;;;;;;5025118;28;20058;-36
2023/04/08 09:42:53;;;;;;;19.08;12.75;;;4.40;99.90;;;;;;5026009;28;20060;-36
2023/04/08 09:45:21;;;;;;;19.05;13.80;;;4.30;99.90;;;;;;5025064;28;20429;-35
2023/04/08 09:47:51;;;;;;;18.83;13.70;;;4.40;99.90;;;;;;5024858;28;20045;-35
2023/04/08 09:50:25;;;;;;;21.88;13.70;;;4.60;99.90;;;;;;5024405;28;20052;-35
2023/04/08 09:52:59;;;;;;;16.80;13.30;;;4.60;99.90;;;;;;5025641;28;20713;-36
2023/04/08 09:55:31;;;;;;;14.98;11.80;;;4.70;99.90;;;;;;5025557;28;20051;-37
2023/04/08 09:58:01;;;;;;;;;;;4.70;99.90;;;;;;5025158;28;20065;-37
2023/04/08 10:00:36;;;;;;;16.55;13.50;;;4.80;99.90;;;;;;5024995;28;19925;-36
2023/04/08 10:03:17;;;;;;;24.13;13.70;;;4.70;99.90;;;;;;5024495;28;20064;-36
2023/04/08 10:05:46;;;;;;;16.05;12.80;;;4.90;99.90;;;;;;5014536;28;20062;-36
2023/04/08 10:08:14;;;;;;;14.32;12.88;;;5.00;99.90;;;;;;5025288;28;20098;-36
2023/04/08 10:10:42;;;;;;;17.77;13.55;;;4.90;99.90;;;;;;5023995;28;20048;-36
2023/04/08 10:13:11;;;;;;;19.15;13.57;;;4.90;99.90;;;;;;5025506;28;20564;-36
2023/04/08 10:15:40;;;;;;;16.63;11.63;;;4.80;99.90;;;;;;5024052;28;20397;-36
2023/04/08 10:18:12;;;;;;;16.73;11.60;;;4.80;99.90;;;;;;5024326;28;20049;-36
2023/04/08 10:20:41;;;;;;;17.08;11.93;;;4.90;99.90;;;;;;5023291;28;20061;-35
2023/04/08 10:23:12;;;;;;;20.52;13.15;;;4.90;99.90;;;;;;5022534;28;20045;-36
2023/04/08 10:25:41;;;;;;;19.88;13.02;;;4.90;99.90;;;;;;5024403;28;20056;-36
2023/04/08 10:28:12;;;;;;;15.75;11.90;;;5.00;99.90;;;;;;5024094;28;20052;-36
2023/04/08 10:30:40;;;;;;;17.05;12.88;;;5.00;99.90;;;;;;5019250;28;20049;-36
2023/04/08 10:33:15;;;;;;;21.90;15.55;;;5.00;99.90;;;;;;5024916;28;20049;-36
2023/04/08 10:35:52;;;;;;;16.08;12.52;;;4.90;99.90;;;;;;5022552;28;20050;-36
2023/04/08 10:38:20;;;;;;;18.15;11.88;;;5.00;99.90;;;;;;5023414;28;20057;-36
2023/04/08 10:40:48;;;;;;;20.27;14.25;;;5.00;99.90;;;;;;5022336;28;20413;-36
2023/04/08 10:43:16;;;;;;;20.33;12.15;;;5.10;99.90;;;;;;5024325;28;20041;-36
2023/04/08 10:45:50;;;;;;;11.48;8.57;;;5.00;99.90;;;;;;5023610;28;20049;-38
2023/04/08 10:48:27;;;;;;;19.90;14.02;;;5.00;99.90;;;;;;5024936;28;20042;-37
2023/04/08 10:50:56;;;;;;;21.30;15.27;;;4.90;99.90;;;;;;5021984;28;20049;-36
2023/04/08 10:53:28;;;;;;;18.83;15.60;;;4.90;99.90;;;;;;5024514;28;20057;-36
2023/04/08 10:56:07;;;;;;;18.50;13.65;;;4.90;99.90;;;;;;5023898;28;20049;-35
2023/04/08 10:58:35;;;;;;;17.23;13.70;;;4.80;99.90;;;;;;5021418;28;20345;-37
2023/04/08 11:01:06;;;;;;;14.68;13.07;;;4.80;99.90;;;;;;5022521;28;20561;-37
2023/04/08 11:03:35;;;;;;;10.68;9.63;;;4.70;99.90;;;;;;5023799;28;20046;-36
2023/04/08 11:06:04;;;;;;;14.93;12.13;;;4.70;99.90;;;;;;5022431;28;20045;-36
2023/04/08 11:08:33;;;;;;;13.50;11.88;;;4.70;99.90;;;;;;5024013;28;20064;-36
2023/04/08 11:11:02;;;;;;;15.30;12.18;;;4.70;99.90;;;;;;5024397;28;20061;-36
2023/04/08 11:13:30;;;;;;;18.70;14.63;;;4.80;99.90;;;;;;5024092;28;20053;-36
2023/04/08 11:15:59;;;;;;;18.38;13.27;;;4.90;99.90;;;;;;5023079;28;20083;-36
2023/04/08 11:18:27;;;;;;;21.65;16.65;;;4.90;99.90;;;;;;5022556;28;20050;-35
2023/04/08 11:20:56;;;;;;;17.42;13.32;;;4.80;99.90;;;;;;5022141;28;20053;-35
2023/04/08 11:23:26;;;;;;;9.20;7.80;;;4.80;99.90;;;;;;5021996;28;20049;-36
2023/04/08 11:25:55;;;;;;;11.10;10.00;;;4.70;99.90;;;;;;5022941;28;20061;-36
2023/04/08 11:28:23;;;;;;;14.73;11.93;;;4.70;99.90;;;;;;5023278;28;20410;-36
2023/04/08 11:30:53;;;;;;;15.65;12.65;;;4.60;99.90;;;;;;5022379;28;20480;-35
2023/04/08 11:33:21;;;;;;;13.27;11.65;;;4.50;99.90;;;;;;5023432;28;20418;-37
2023/04/08 11:35:50;;;;;;;13.25;10.98;;;4.50;99.90;;;;;;5021114;28;20041;-37
2023/04/08 11:38:22;;;;;;;10.40;8.98;;;4.40;99.90;;;;;;5022837;28;20441;-36
2023/04/08 11:40:57;;;;;;;14.55;10.65;;;4.40;99.90;;;;;;5023467;28;20056;-37
2023/04/08 11:43:25;;;;;;;10.25;9.25;;;4.30;99.90;;;;;;5023049;28;20045;-37
2023/04/08 11:45:53;;;;;;;13.88;10.38;;;4.30;99.90;;;;;;5025136;28;20053;-37
2023/04/08 11:48:21;;;;;;;14.55;11.93;;;4.30;99.90;;;;;;5027960;28;20425;-36
2023/04/08 11:51:02;;;;;;;15.98;12.15;;;4.30;99.90;;;;;;5021216;28;20421;-36
2023/04/08 11:53:30;;;;;;;11.50;9.57;;;4.40;99.90;;;;;;5022733;28;20057;-37
2023/04/08 11:56:14;;;;;;;15.75;10.35;;;4.50;99.90;;;;;;5020649;28;20052;-36
2023/04/08 11:58:42;;;;;;;8.88;8.00;;;4.40;99.90;;;;;;5020919;28;20045;-36
2023/04/08 12:01:10;;;;;;;9.23;8.20;;;4.30;99.90;;;;;;5023366;28;20050;-36
2023/04/08 12:03:37;;;;;;;8.65;7.70;;;4.30;99.90;;;;;;5022399;28;20053;-36
2023/04/08 12:06:07;;;;;;;7.55;6.53;;;4.30;99.90;;;;;;5024977;28;20053;-36
2023/04/08 12:08:35;;;;;;;8.65;7.28;;;4.20;99.90;;;;;;5023331;28;20069;-36
2023/04/08 12:11:02;;;;;;;9.93;8.80;;;4.20;99.90;;;;;;5022473;28;20057;-36
2023/04/08 12:13:43;;;;;;;13.20;8.52;;;4.20;99.90;;;;;;5023015;28;20052;-36
2023/04/08 12:16:11;;;;;;;13.93;8.77;;;4.10;99.90;;;;;;5023171;28;20041;-36
2023/04/08 12:18:38;;;;;;;9.93;8.45;;;4.10;99.90;;;;;;5009678;28;20072;-37
2023/04/08 12:21:06;;;;;;;11.30;7.50;;;4.20;99.90;;;;;;5022282;28;20053;-35
2023/04/08 12:23:34;;;;;;;11.38;9.88;;;4.20;99.90;;;;;;5022045;28;20045;-36
2023/04/08 12:26:03;;;;;;;9.73;7.82;;;4.20;99.90;;;;;;5022196;28;20060;-35
2023/04/08 12:28:30;;;;;;;12.27;7.65;;;4.10;99.90;;;;;;5022322;28;20060;-36
2023/04/08 12:30:58;;;;;;;10.80;9.70;;;4.10;99.90;;;;;;5022428;28;20053;-36
2023/04/08 12:33:25;;;;;;;10.57;9.48;;;4.10;99.90;;;;;;5022653;28;20061;-36
2023/04/08 12:35:53;;;;;;;13.98;9.85;;;4.10;99.90;;;;;;5020737;28;20045;-35
2023/04/08 12:38:21;;;;;;;9.88;7.82;;;4.10;99.90;;;;;;5022457;28;20052;-37
2023/04/08 12:40:48;;;;;;;9.63;8.68;;;4.10;99.90;;;;;;5020154;28;20049;-35
2023/04/08 12:43:16;;;;;;;17.63;10.80;;;4.00;99.90;;;;;;5020407;28;20102;-36
2023/04/08 12:45:44;;;;;;;11.73;9.70;;;4.00;99.90;;;;;;5022025;28;20057;-35
2023/04/08 12:48:11;;;;;;;9.57;8.60;;;3.90;99.90;;;;;;5021765;28;20053;-35
2023/04/08 12:50:39;;;;;;;11.07;9.73;;;4.00;99.90;;;;;;5021462;28;20521;-36
2023/04/08 12:53:07;;;;;;;10.82;7.50;;;4.10;99.90;;;;;;5026305;28;20518;-36